Latest Coastal Weather Observations for Gannett Cay

IDQ60701

Issued at 11:12 pm EST Saturday 9 May 2026 (issued every 10 minutes, with the page automatically refreshed every 10 minutes)

About coastal observations | Map of coastal stations | Coastal observations for QLD | Marine services | Other Formats
Station Details ID: 200831 Name: GANNET CAY Lat: -21.98 Lon: 152.47 Height: 2.3 m
Data from the previous 72 hours. | See also: Recent months for locations in Queensland
Date/Time
EST
Wind Sea
Height
m
Swell Vis
km
Cloud Weather Temp
°C
Press
MSL
hPa
Rain since
9am
mm
Dir  Spd
kts
Gust
kts
Height
m
Period
s
Dir
09/11:00pm SE 22 26 - - - - - - - 24.1 1020.6 -
09/10:30pm ESE 21 23 - - - - - - - 24.0 1020.7 -
09/10:00pm SE 21 25 - - - - - - - 24.1 1020.8 -
09/09:30pm ESE 22 26 - - - - - - - 24.1 1020.7 -
09/09:00pm SE 22 25 - - - - - - - 24.1 1020.7 -
09/08:30pm SE 23 26 - - - - - - - 24.1 1020.6 -
09/08:00pm ESE 22 25 - - - - - - - 24.0 1020.6 -
09/05:30pm SE 22 26 - - - - - - - 24.0 1019.1 -
09/05:00pm SE 20 23 - - - - - - - 24.1 1018.9 -
09/04:30pm SE 19 23 - - - - - - - 24.0 1018.5 -
09/04:00pm SE 20 23 - - - - - - - 24.1 1018.1 -
09/03:30pm SE 21 23 - - - - - - - 24.1 1017.9 -
09/03:00pm SE 19 24 - - - - - - - 24.2 1017.7 -
09/02:30pm SE 20 22 - - - - - - - 24.2 1017.5 -
09/02:00pm SE 21 25 - - - - - - - 24.2 1017.6 -
09/01:30pm SE 20 23 - - - - - - - 24.1 1017.6 -
09/01:00pm SE 21 26 - - - - - - - 24.1 1017.8 -
09/12:30pm SE 20 22 - - - - - - - 24.1 1018.0 -
09/12:00pm SE 20 23 - - - - - - - 24.3 1018.3 -
09/11:30am SE 20 23 - - - - - - - 24.1 1018.5 -
09/11:00am SE 21 25 - - - - - - - 24.1 1018.8 -
09/10:30am SE 21 24 - - - - - - - 24.2 1019.1 -
09/10:00am SE 20 24 - - - - - - - 24.0 1019.3 -
09/09:30am SE 19 22 - - - - - - - 24.1 1019.2 -
09/09:00am SE 20 22 - - - - - - - 24.1 1019.1 -
09/08:30am SE 21 23 - - - - - - - 24.0 1018.9 -
09/08:00am SE 21 23 - - - - - - - 23.9 1018.8 -
09/07:30am SE 21 23 - - - - - - - 23.7 1018.5 -
09/07:00am SE 21 24 - - - - - - - 23.8 1018.2 -
09/06:00am SE 19 22 - - - - - - - 23.9 1017.6 -
09/05:30am SSE 19 24 - - - - - - - 23.7 1017.2 -
09/05:00am SSE 20 23 - - - - - - - 23.6 1016.9 -
09/04:30am SSE 20 23 - - - - - - - 23.4 1016.8 -
09/04:00am SSE 19 23 - - - - - - - 23.4 1016.6 -
09/03:30am SSE 19 23 - - - - - - - 23.7 1016.5 -
09/03:00am SSE 19 23 - - - - - - - 23.5 1016.5 -
09/02:30am SSE 17 19 - - - - - - - 23.8 1016.8 -
09/02:00am SSE 17 20 - - - - - - - 23.6 1016.9 -
09/01:30am SSE 17 21 - - - - - - - 23.7 1017.1 -
09/01:00am SSE 17 19 - - - - - - - 23.6 1017.1 -
09/12:30am SSE 17 20 - - - - - - - 23.6 1017.2 -
09/12:00am SSE 17 20 - - - - - - - 23.5 1017.2 -
 
Date/Time
EST
Wind Sea
Height
m
Swell Vis
km
Cloud Weather Temp
°C
Press
MSL
hPa
Rain since
9am
mm
Dir  Spd
kts
Gust
kts
Height
m
Period
s
Dir
08/11:30pm SSE 17 19 - - - - - - - 23.6 1017.6 -
08/11:00pm SSE 17 19 - - - - - - - 23.6 1018.0 -
08/10:30pm SSE 17 20 - - - - - - - 23.5 1018.0 -
08/10:00pm SSE 17 21 - - - - - - - 23.6 1018.1 -
08/09:30pm SSE 17 20 - - - - - - - 23.5 1018.2 -
08/09:00pm SSE 18 22 - - - - - - - 23.3 1018.1 -
08/08:30pm SSE 17 20 - - - - - - - 23.6 1018.1 -
08/08:00pm SSE 18 21 - - - - - - - 23.5 1017.9 -
08/05:30pm SSE 18 21 - - - - - - - 22.5 1016.6 -
08/05:00pm SSE 17 20 - - - - - - - 22.5 1016.4 -
08/04:30pm SSE 18 21 - - - - - - - 22.6 1016.3 -
08/04:00pm SSE 18 21 - - - - - - - 22.6 1016.1 -
08/03:30pm SSE 19 23 - - - - - - - 22.6 1015.9 -
08/03:00pm S 20 23 - - - - - - - 22.6 1015.8 -
08/02:30pm S 23 25 - - - - - - - 22.2 1015.3 -
08/02:00pm S 22 26 - - - - - - - 22.2 1015.6 -
08/01:30pm S 22 24 - - - - - - - 22.0 1016.0 -
08/01:00pm S 22 26 - - - - - - - 22.2 1016.4 -
08/12:30pm S 23 26 - - - - - - - 22.8 1016.5 -
08/12:00pm S 25 28 - - - - - - - 22.6 1016.6 -
08/11:30am S 24 29 - - - - - - - 22.5 1017.2 -
08/11:00am S 24 29 - - - - - - - 22.8 1017.4 -
08/10:30am S 24 29 - - - - - - - 22.9 1017.7 -
08/10:00am S 25 29 - - - - - - - 23.0 1017.8 -
08/09:30am SSE 25 30 - - - - - - - 23.3 1017.8 -
08/09:00am S 25 29 - - - - - - - 23.0 1017.6 -
08/08:30am S 26 32 - - - - - - - 23.4 1017.4 -
08/08:00am S 26 29 - - - - - - - 23.5 1017.1 -
08/07:30am S 25 30 - - - - - - - 23.7 1017.1 -
08/07:00am S 25 31 - - - - - - - 23.7 1016.4 -
08/06:30am S 25 30 - - - - - - - 23.9 1016.1 -
08/06:00am S 25 30 - - - - - - - 24.3 1015.8 -
08/05:30am S 25 28 - - - - - - - 24.4 1015.5 -
08/05:00am S 24 27 - - - - - - - 24.4 1015.2 -
08/04:30am S 23 26 - - - - - - - 24.6 1015.1 -
08/04:00am S 23 27 - - - - - - - 24.3 1015.0 -
08/03:30am SSE 16 19 - - - - - - - 24.9 1014.8 -
08/03:00am SSE 17 20 - - - - - - - 25.1 1014.9 -
08/02:30am SSE 18 21 - - - - - - - 24.8 1014.8 -
08/02:00am SSE 17 19 - - - - - - - 24.7 1014.9 -
08/01:30am SSE 15 17 - - - - - - - 25.0 1014.7 -
08/01:00am SSE 15 17 - - - - - - - 24.8 1014.8 -
08/12:30am SSE 14 16 - - - - - - - 25.0 1014.8 -
08/12:00am SSE 15 16 - - - - - - - 24.9 1015.0 -
 
Date/Time
EST
Wind Sea
Height
m
Swell Vis
km
Cloud Weather Temp
°C
Press
MSL
hPa
Rain since
9am
mm
Dir  Spd
kts
Gust
kts
Height
m
Period
s
Dir
07/11:30pm SSE 15 17 - - - - - - - 25.0 1015.2 -
07/11:00pm SSE 16 18 - - - - - - - 25.0 1015.4 -
07/10:30pm SSE 16 19 - - - - - - - 25.1 1015.6 -
07/10:00pm SSE 17 19 - - - - - - - 24.7 1015.8 -
07/09:30pm SSE 16 18 - - - - - - - 24.9 1015.8 -
07/09:00pm SSE 17 19 - - - - - - - 24.9 1015.8 -
07/08:30pm SSE 15 17 - - - - - - - 24.6 1015.8 -
07/08:00pm SSE 15 17 - - - - - - - 24.7 1015.7 -
07/05:30pm - - - - - - - - - - 24.6 1014.0 -
07/05:00pm S 11 12 - - - - - - - 24.7 1013.8 -
07/04:30pm S 11 12 - - - - - - - 24.9 1013.4 -
07/04:00pm S 11 13 - - - - - - - 24.9 1013.3 -
07/03:30pm S 8 11 - - - - - - - 25.2 1013.0 -
07/03:00pm S 9 11 - - - - - - - 25.1 1012.9 -
07/02:30pm S 11 13 - - - - - - - 25.0 1012.8 -
07/02:00pm S 8 10 - - - - - - - 25.7 1013.0 -
07/01:30pm S 7 8 - - - - - - - 25.2 1013.1 -
07/01:00pm SSE 6 8 - - - - - - - 26.1 1013.2 -
07/12:30pm SSE 6 7 - - - - - - - 25.7 1013.4 -
07/12:00pm SSE 6 7 - - - - - - - 25.6 1013.8 -
07/11:30am SSE 7 8 - - - - - - - 25.9 1014.1 -
07/11:00am SSE 7 9 - - - - - - - 26.0 1014.3 -
07/10:30am SSE 8 9 - - - - - - - 25.6 1014.6 -
07/10:00am SSE 9 10 - - - - - - - 25.1 1014.8 -
07/09:30am S 8 10 - - - - - - - 24.8 1015.0 -
07/09:00am SSW 6 7 - - - - - - - 24.4 1015.0 -
07/08:30am WSW 6 7 - - - - - - - 24.2 1014.9 -
07/08:00am WSW 6 7 - - - - - - - 24.0 1014.8 -
07/07:30am W 4 6 - - - - - - - 24.0 1014.6 -
07/07:00am WNW 5 6 - - - - - - - 23.9 1014.4 -
07/06:30am NW 5 6 - - - - - - - 23.8 1014.1 -
07/06:00am ENE 6 8 - - - - - - - 24.0 1013.7 -
07/05:30am E 7 11 - - - - - - - 24.2 1013.6 -
07/05:00am E 5 6 - - - - - - - 24.2 1013.2 -
07/04:30am E 7 9 - - - - - - - 24.1 1013.2 -
07/04:00am E 8 10 - - - - - - - 24.1 1013.2 -
07/03:30am S 2 4 - - - - - - - 23.5 1013.2 -
07/03:00am S 2 3 - - - - - - - 23.2 1013.3 -
07/02:30am S 1 3 - - - - - - - 23.1 1013.5 -
07/02:00am S 1 3 - - - - - - - 22.8 1013.6 -
07/01:30am S 4 6 - - - - - - - 22.5 1013.9 -
07/01:00am SSE 4 6 - - - - - - - 22.5 1014.4 -
07/12:30am SSE 4 7 - - - - - - - 22.4 1014.6 -
07/12:00am ESE 4 6 - - - - - - - 22.5 1014.8 -
 
Date/Time
EST
Wind Sea
Height
m
Swell Vis
km
Cloud Weather Temp
°C
Press
MSL
hPa
Rain since
9am
mm
Dir  Spd
kts
Gust
kts
Height
m
Period
s
Dir
06/11:30pm ESE 13 19 - - - - - - - 22.5 1014.8 -

Other formats

Comma delimited format used in spreadsheet applications
http://www.bom.gov.au/fwo/IDQ60701/IDQ60701.94379.axf

JavaScript Object Notation format (JSON) in row-major order
http://www.bom.gov.au/fwo/IDQ60701/IDQ60701.94379.json

Data quality

Most of these data are generated automatically and are frequently updated. Quality checks on data are not normally performed. It is possible for incorrect values to appear. Refer to information at About Latest Weather Observations and please check the disclaimer before using these data.